West Ocean City, Maryland
Current Conditions -  °F | °C
As of 6:53 AM on Friday 19 Dec 2014 (Local Time) from KOXB Reporting Station
Broken Clouds Broken Clouds  
Wind Chill: 29°   Ceiling: 10000
Heat Index: 33°   Visibility: 10mi
Dew Point: 25°   Wind: 5mph
Humidity: 72%   Direction: 320°NW
Pressure: 30.1"   Gusts: NA
Location:  38.3984°N, 75.0667°W
Report Text: KOXB 191153Z AUTO 32004KT 10SM BKN100 01/M04 A3010 RMK AO2 SLP192 T00061039 10017 20006 53010 TSNO
Loading
Personal Weather Stations






























Interactive Weather Map New forecast layout! Learn more

10-Day Weather Forecast

Advertisements
Track Severe Weather on mobile